sensor_id;sensor_type;location;lat;lon;timestamp;temperature;humidity
14687;DHT22;7431;49.440;11.084;2023-12-28T00:01:28;3.30;99.90
14687;DHT22;7431;49.440;11.084;2023-12-28T00:03:53;3.50;99.90
14687;DHT22;7431;49.440;11.084;2023-12-28T00:06:19;3.40;99.90
14687;DHT22;7431;49.440;11.084;2023-12-28T00:08:44;3.60;99.90
14687;DHT22;7431;49.440;11.084;2023-12-28T00:11:10;3.00;99.90
14687;DHT22;7431;49.440;11.084;2023-12-28T00:13:36;3.90;99.90
14687;DHT22;7431;49.440;11.084;2023-12-28T00:16:01;3.20;99.90
14687;DHT22;7431;49.440;11.084;2023-12-28T00:18:27;3.30;99.90
14687;DHT22;7431;49.440;11.084;2023-12-28T00:20:52;3.20;99.90
14687;DHT22;7431;49.440;11.084;2023-12-28T00:23:18;3.40;99.90
14687;DHT22;7431;49.440;11.084;2023-12-28T00:25:45;5.20;99.90
14687;DHT22;7431;49.440;11.084;2023-12-28T00:28:11;3.10;99.90
14687;DHT22;7431;49.440;11.084;2023-12-28T00:30:37;3.10;99.90
14687;DHT22;7431;49.440;11.084;2023-12-28T00:33:02;3.10;99.90
14687;DHT22;7431;49.440;11.084;2023-12-28T00:35:28;3.40;99.90
14687;DHT22;7431;49.440;11.084;2023-12-28T00:37:53;3.10;99.90
14687;DHT22;7431;49.440;11.084;2023-12-28T00:40:19;3.10;99.90
14687;DHT22;7431;49.440;11.084;2023-12-28T00:42:44;4.60;99.90
14687;DHT22;7431;49.440;11.084;2023-12-28T00:45:10;3.10;99.90
14687;DHT22;7431;49.440;11.084;2023-12-28T00:47:36;3.00;99.90
14687;DHT22;7431;49.440;11.084;2023-12-28T00:50:01;3.00;99.90
14687;DHT22;7431;49.440;11.084;2023-12-28T00:52:27;3.00;99.90
14687;DHT22;7431;49.440;11.084;2023-12-28T00:54:52;3.20;99.90
14687;DHT22;7431;49.440;11.084;2023-12-28T00:57:18;3.10;99.90
14687;DHT22;7431;49.440;11.084;2023-12-28T00:59:43;3.40;99.90
14687;DHT22;7431;49.440;11.084;2023-12-28T01:02:09;3.20;99.90
14687;DHT22;7431;49.440;11.084;2023-12-28T01:04:35;3.10;99.90
14687;DHT22;7431;49.440;11.084;2023-12-28T01:07:00;3.20;99.90
14687;DHT22;7431;49.440;11.084;2023-12-28T01:09:28;3.20;99.90
14687;DHT22;7431;49.440;11.084;2023-12-28T01:11:53;3.20;99.90
14687;DHT22;7431;49.440;11.084;2023-12-28T01:14:19;3.00;99.90
14687;DHT22;7431;49.440;11.084;2023-12-28T01:16:45;3.20;99.90
14687;DHT22;7431;49.440;11.084;2023-12-28T01:19:10;3.10;99.90
14687;DHT22;7431;49.440;11.084;2023-12-28T01:21:36;3.00;99.90
14687;DHT22;7431;49.440;11.084;2023-12-28T01:24:01;3.20;99.90
14687;DHT22;7431;49.440;11.084;2023-12-28T01:26:27;3.40;99.90
14687;DHT22;7431;49.440;11.084;2023-12-28T01:28:53;5.00;99.90
14687;DHT22;7431;49.440;11.084;2023-12-28T01:31:18;4.00;99.90
14687;DHT22;7431;49.440;11.084;2023-12-28T01:33:44;3.60;99.90
14687;DHT22;7431;49.440;11.084;2023-12-28T01:36:20;4.40;99.90
14687;DHT22;7431;49.440;11.084;2023-12-28T01:38:46;3.90;99.90
14687;DHT22;7431;49.440;11.084;2023-12-28T01:41:11;5.40;99.90
14687;DHT22;7431;49.440;11.084;2023-12-28T01:43:39;4.10;99.90
14687;DHT22;7431;49.440;11.084;2023-12-28T01:46:13;4.00;99.90
14687;DHT22;7431;49.440;11.084;2023-12-28T01:48:41;4.00;99.90
14687;DHT22;7431;49.440;11.084;2023-12-28T01:51:07;4.00;99.90
14687;DHT22;7431;49.440;11.084;2023-12-28T01:53:33;4.00;99.90
14687;DHT22;7431;49.440;11.084;2023-12-28T01:55:59;3.70;99.90
14687;DHT22;7431;49.440;11.084;2023-12-28T01:58:27;3.50;99.90
14687;DHT22;7431;49.440;11.084;2023-12-28T02:00:56;3.60;99.90
14687;DHT22;7431;49.440;11.084;2023-12-28T02:03:21;3.60;99.90
14687;DHT22;7431;49.440;11.084;2023-12-28T02:05:47;3.70;99.90
14687;DHT22;7431;49.440;11.084;2023-12-28T02:08:13;3.70;99.90
14687;DHT22;7431;49.440;11.084;2023-12-28T02:10:39;3.90;99.90
14687;DHT22;7431;49.440;11.084;2023-12-28T02:13:04;4.00;99.90
14687;DHT22;7431;49.440;11.084;2023-12-28T02:15:30;3.90;99.90
14687;DHT22;7431;49.440;11.084;2023-12-28T02:18:01;4.60;99.90
14687;DHT22;7431;49.440;11.084;2023-12-28T02:20:29;4.00;99.90
14687;DHT22;7431;49.440;11.084;2023-12-28T02:22:56;4.10;99.90
14687;DHT22;7431;49.440;11.084;2023-12-28T02:25:22;4.00;99.90
14687;DHT22;7431;49.440;11.084;2023-12-28T02:27:48;3.70;99.90
14687;DHT22;7431;49.440;11.084;2023-12-28T02:30:22;3.40;99.90
14687;DHT22;7431;49.440;11.084;2023-12-28T02:35:52;4.10;99.90
14687;DHT22;7431;49.440;11.084;2023-12-28T02:38:21;3.80;99.90
14687;DHT22;7431;49.440;11.084;2023-12-28T02:40:49;4.10;99.90
14687;DHT22;7431;49.440;11.084;2023-12-28T02:43:15;3.80;99.90
14687;DHT22;7431;49.440;11.084;2023-12-28T02:45:40;3.70;99.90
14687;DHT22;7431;49.440;11.084;2023-12-28T02:48:06;3.80;99.90
14687;DHT22;7431;49.440;11.084;2023-12-28T02:50:33;3.70;99.90
14687;DHT22;7431;49.440;11.084;2023-12-28T02:52:59;3.80;99.90
14687;DHT22;7431;49.440;11.084;2023-12-28T02:55:24;3.70;99.90
14687;DHT22;7431;49.440;11.084;2023-12-28T02:57:51;3.70;99.90
14687;DHT22;7431;49.440;11.084;2023-12-28T03:00:17;4.30;99.90
14687;DHT22;7431;49.440;11.084;2023-12-28T03:02:43;3.80;99.90
14687;DHT22;7431;49.440;11.084;2023-12-28T03:05:09;3.80;99.90
14687;DHT22;7431;49.440;11.084;2023-12-28T03:07:35;3.70;99.90
14687;DHT22;7431;49.440;11.084;2023-12-28T03:10:01;3.60;99.90
14687;DHT22;7431;49.440;11.084;2023-12-28T03:12:28;3.50;99.90
14687;DHT22;7431;49.440;11.084;2023-12-28T03:14:54;3.70;99.90
14687;DHT22;7431;49.440;11.084;2023-12-28T03:17:19;3.70;99.90
14687;DHT22;7431;49.440;11.084;2023-12-28T03:19:45;3.60;99.90
14687;DHT22;7431;49.440;11.084;2023-12-28T03:22:11;3.60;99.90
14687;DHT22;7431;49.440;11.084;2023-12-28T03:24:37;3.70;99.90
14687;DHT22;7431;49.440;11.084;2023-12-28T03:27:04;3.60;99.90
14687;DHT22;7431;49.440;11.084;2023-12-28T03:29:30;3.80;99.90
14687;DHT22;7431;49.440;11.084;2023-12-28T03:31:55;3.50;99.90
14687;DHT22;7431;49.440;11.084;2023-12-28T03:34:21;3.50;99.90
14687;DHT22;7431;49.440;11.084;2023-12-28T03:36:48;3.40;99.90
14687;DHT22;7431;49.440;11.084;2023-12-28T03:39:13;3.70;99.90
14687;DHT22;7431;49.440;11.084;2023-12-28T03:41:39;3.50;99.90
14687;DHT22;7431;49.440;11.084;2023-12-28T03:44:05;4.00;99.90
14687;DHT22;7431;49.440;11.084;2023-12-28T03:46:30;3.50;99.90
14687;DHT22;7431;49.440;11.084;2023-12-28T03:48:56;3.40;99.90
14687;DHT22;7431;49.440;11.084;2023-12-28T03:51:21;3.50;99.90
14687;DHT22;7431;49.440;11.084;2023-12-28T03:53:47;3.40;99.90
14687;DHT22;7431;49.440;11.084;2023-12-28T03:56:26;3.30;99.90
14687;DHT22;7431;49.440;11.084;2023-12-28T03:58:52;3.60;99.90
14687;DHT22;7431;49.440;11.084;2023-12-28T04:01:18;3.50;99.90
14687;DHT22;7431;49.440;11.084;2023-12-28T04:03:44;3.40;99.90
14687;DHT22;7431;49.440;11.084;2023-12-28T04:06:10;3.50;99.90
14687;DHT22;7431;49.440;11.084;2023-12-28T04:08:36;3.50;99.90
14687;DHT22;7431;49.440;11.084;2023-12-28T04:11:02;3.40;99.90
14687;DHT22;7431;49.440;11.084;2023-12-28T04:13:27;3.70;99.90
14687;DHT22;7431;49.440;11.084;2023-12-28T04:15:53;3.40;99.90
14687;DHT22;7431;49.440;11.084;2023-12-28T04:18:18;3.60;99.90
14687;DHT22;7431;49.440;11.084;2023-12-28T04:20:44;3.60;99.90
14687;DHT22;7431;49.440;11.084;2023-12-28T04:23:12;5.10;99.90
14687;DHT22;7431;49.440;11.084;2023-12-28T04:25:38;3.50;99.90
14687;DHT22;7431;49.440;11.084;2023-12-28T04:28:03;3.50;99.90
14687;DHT22;7431;49.440;11.084;2023-12-28T04:30:29;3.70;99.90
14687;DHT22;7431;49.440;11.084;2023-12-28T04:32:54;3.60;99.90
14687;DHT22;7431;49.440;11.084;2023-12-28T04:35:20;3.50;99.90
14687;DHT22;7431;49.440;11.084;2023-12-28T04:37:45;3.80;99.90
14687;DHT22;7431;49.440;11.084;2023-12-28T04:40:11;3.70;99.90
14687;DHT22;7431;49.440;11.084;2023-12-28T04:42:39;3.80;99.90
14687;DHT22;7431;49.440;11.084;2023-12-28T04:45:05;4.00;99.90
14687;DHT22;7431;49.440;11.084;2023-12-28T04:47:31;4.10;99.90
14687;DHT22;7431;49.440;11.084;2023-12-28T04:49:57;3.90;99.90
14687;DHT22;7431;49.440;11.084;2023-12-28T04:52:22;4.20;99.90
14687;DHT22;7431;49.440;11.084;2023-12-28T04:54:48;4.00;99.90
14687;DHT22;7431;49.440;11.084;2023-12-28T04:57:14;4.30;99.90
14687;DHT22;7431;49.440;11.084;2023-12-28T04:59:40;4.10;99.90
14687;DHT22;7431;49.440;11.084;2023-12-28T05:02:05;4.20;99.90
14687;DHT22;7431;49.440;11.084;2023-12-28T05:04:31;4.10;99.90
14687;DHT22;7431;49.440;11.084;2023-12-28T05:06:57;4.10;99.90
14687;DHT22;7431;49.440;11.084;2023-12-28T05:09:22;4.20;99.90
14687;DHT22;7431;49.440;11.084;2023-12-28T05:11:48;4.10;99.90
14687;DHT22;7431;49.440;11.084;2023-12-28T05:14:13;4.20;99.90
14687;DHT22;7431;49.440;11.084;2023-12-28T05:16:39;4.10;99.90
14687;DHT22;7431;49.440;11.084;2023-12-28T05:19:04;4.40;99.90
14687;DHT22;7431;49.440;11.084;2023-12-28T05:21:30;4.10;99.90
14687;DHT22;7431;49.440;11.084;2023-12-28T05:23:55;4.30;99.90
14687;DHT22;7431;49.440;11.084;2023-12-28T05:26:21;4.40;99.90
14687;DHT22;7431;49.440;11.084;2023-12-28T05:28:48;4.50;99.90
14687;DHT22;7431;49.440;11.084;2023-12-28T05:31:13;4.50;99.90
14687;DHT22;7431;49.440;11.084;2023-12-28T05:33:39;4.60;99.90
14687;DHT22;7431;49.440;11.084;2023-12-28T05:36:05;4.70;99.90
14687;DHT22;7431;49.440;11.084;2023-12-28T05:38:31;4.90;99.90
14687;DHT22;7431;49.440;11.084;2023-12-28T05:40:57;4.80;1.00
14687;DHT22;7431;49.440;11.084;2023-12-28T05:43:22;5.60;1.00
14687;DHT22;7431;49.440;11.084;2023-12-28T05:45:48;5.90;1.00
14687;DHT22;7431;49.440;11.084;2023-12-28T05:48:13;4.80;1.00
14687;DHT22;7431;49.440;11.084;2023-12-28T05:50:39;4.90;99.90
14687;DHT22;7431;49.440;11.084;2023-12-28T05:53:05;4.90;99.90
14687;DHT22;7431;49.440;11.084;2023-12-28T05:55:30;5.10;99.90
14687;DHT22;7431;49.440;11.084;2023-12-28T05:57:56;5.10;99.90
14687;DHT22;7431;49.440;11.084;2023-12-28T06:00:22;5.20;99.90
14687;DHT22;7431;49.440;11.084;2023-12-28T06:02:47;5.40;99.90
14687;DHT22;7431;49.440;11.084;2023-12-28T06:05:17;5.10;99.90
14687;DHT22;7431;49.440;11.084;2023-12-28T06:07:43;5.30;99.90
14687;DHT22;7431;49.440;11.084;2023-12-28T06:10:09;5.20;99.90
14687;DHT22;7431;49.440;11.084;2023-12-28T06:12:35;5.20;99.90
14687;DHT22;7431;49.440;11.084;2023-12-28T06:15:00;5.40;99.90
14687;DHT22;7431;49.440;11.084;2023-12-28T06:17:26;5.40;99.90
14687;DHT22;7431;49.440;11.084;2023-12-28T06:19:52;5.40;99.90
14687;DHT22;7431;49.440;11.084;2023-12-28T06:22:17;5.30;99.90
14687;DHT22;7431;49.440;11.084;2023-12-28T06:24:43;7.30;99.90
14687;DHT22;7431;49.440;11.084;2023-12-28T06:27:09;5.50;99.90
14687;DHT22;7431;49.440;11.084;2023-12-28T06:29:34;5.50;99.90
14687;DHT22;7431;49.440;11.084;2023-12-28T06:32:00;5.60;99.90
14687;DHT22;7431;49.440;11.084;2023-12-28T06:34:25;5.70;99.90
14687;DHT22;7431;49.440;11.084;2023-12-28T06:36:51;5.80;99.90
14687;DHT22;7431;49.440;11.084;2023-12-28T06:39:17;5.60;99.90
14687;DHT22;7431;49.440;11.084;2023-12-28T06:41:47;5.50;99.90
14687;DHT22;7431;49.440;11.084;2023-12-28T06:44:13;5.50;99.90
14687;DHT22;7431;49.440;11.084;2023-12-28T06:46:40;5.60;99.90
14687;DHT22;7431;49.440;11.084;2023-12-28T06:49:06;6.00;99.90
14687;DHT22;7431;49.440;11.084;2023-12-28T06:51:31;5.50;99.90
14687;DHT22;7431;49.440;11.084;2023-12-28T06:53:57;5.50;99.90
14687;DHT22;7431;49.440;11.084;2023-12-28T06:56:22;5.50;99.90
14687;DHT22;7431;49.440;11.084;2023-12-28T06:58:48;5.60;99.90
14687;DHT22;7431;49.440;11.084;2023-12-28T07:01:14;5.60;99.90
14687;DHT22;7431;49.440;11.084;2023-12-28T07:03:40;5.60;99.90
14687;DHT22;7431;49.440;11.084;2023-12-28T07:06:05;7.00;99.90
14687;DHT22;7431;49.440;11.084;2023-12-28T07:08:31;6.20;99.90
14687;DHT22;7431;49.440;11.084;2023-12-28T07:10:57;5.70;99.90
14687;DHT22;7431;49.440;11.084;2023-12-28T07:13:22;6.00;99.90
14687;DHT22;7431;49.440;11.084;2023-12-28T07:15:48;5.70;99.90
14687;DHT22;7431;49.440;11.084;2023-12-28T07:18:14;5.70;99.90
14687;DHT22;7431;49.440;11.084;2023-12-28T07:20:39;5.80;99.90
14687;DHT22;7431;49.440;11.084;2023-12-28T07:23:05;6.10;99.90
14687;DHT22;7431;49.440;11.084;2023-12-28T07:25:31;6.10;99.90
14687;DHT22;7431;49.440;11.084;2023-12-28T07:27:56;6.10;99.90
14687;DHT22;7431;49.440;11.084;2023-12-28T07:30:22;6.20;99.90
14687;DHT22;7431;49.440;11.084;2023-12-28T07:32:47;6.50;99.90
14687;DHT22;7431;49.440;11.084;2023-12-28T07:35:13;6.60;99.90
14687;DHT22;7431;49.440;11.084;2023-12-28T07:37:39;6.30;99.90
14687;DHT22;7431;49.440;11.084;2023-12-28T07:40:05;6.30;99.90
14687;DHT22;7431;49.440;11.084;2023-12-28T07:42:30;6.50;99.90
14687;DHT22;7431;49.440;11.084;2023-12-28T07:44:56;6.30;99.90
14687;DHT22;7431;49.440;11.084;2023-12-28T07:47:22;6.70;99.90
14687;DHT22;7431;49.440;11.084;2023-12-28T07:49:47;6.30;99.90
14687;DHT22;7431;49.440;11.084;2023-12-28T07:52:13;6.30;99.90
14687;DHT22;7431;49.440;11.084;2023-12-28T07:54:38;6.30;99.90
14687;DHT22;7431;49.440;11.084;2023-12-28T07:57:04;6.40;99.90
14687;DHT22;7431;49.440;11.084;2023-12-28T07:59:30;6.40;99.90
14687;DHT22;7431;49.440;11.084;2023-12-28T08:01:56;7.90;99.90
14687;DHT22;7431;49.440;11.084;2023-12-28T08:04:22;6.60;99.90
14687;DHT22;7431;49.440;11.084;2023-12-28T08:06:48;6.30;99.90
14687;DHT22;7431;49.440;11.084;2023-12-28T08:09:13;6.40;99.90
14687;DHT22;7431;49.440;11.084;2023-12-28T08:11:39;6.40;99.90
14687;DHT22;7431;49.440;11.084;2023-12-28T08:14:05;6.40;99.90
14687;DHT22;7431;49.440;11.084;2023-12-28T08:16:31;6.70;99.90
14687;DHT22;7431;49.440;11.084;2023-12-28T08:18:57;6.40;99.90
14687;DHT22;7431;49.440;11.084;2023-12-28T08:21:22;6.30;99.90
14687;DHT22;7431;49.440;11.084;2023-12-28T08:23:48;7.50;99.90
14687;DHT22;7431;49.440;11.084;2023-12-28T08:26:13;6.30;99.90
14687;DHT22;7431;49.440;11.084;2023-12-28T08:28:39;8.00;99.90
14687;DHT22;7431;49.440;11.084;2023-12-28T08:31:05;9.40;99.90
14687;DHT22;7431;49.440;11.084;2023-12-28T08:33:32;5.90;99.90
14687;DHT22;7431;49.440;11.084;2023-12-28T08:35:58;6.40;99.90
14687;DHT22;7431;49.440;11.084;2023-12-28T08:38:23;8.30;99.90
14687;DHT22;7431;49.440;11.084;2023-12-28T08:40:49;6.60;99.90
14687;DHT22;7431;49.440;11.084;2023-12-28T08:43:15;6.60;99.90
14687;DHT22;7431;49.440;11.084;2023-12-28T08:45:40;6.60;99.90
14687;DHT22;7431;49.440;11.084;2023-12-28T08:48:06;6.70;99.90
14687;DHT22;7431;49.440;11.084;2023-12-28T08:50:32;6.90;99.90
14687;DHT22;7431;49.440;11.084;2023-12-28T08:52:58;7.00;99.90
14687;DHT22;7431;49.440;11.084;2023-12-28T08:55:23;6.60;99.90
14687;DHT22;7431;49.440;11.084;2023-12-28T08:57:49;6.90;99.90
14687;DHT22;7431;49.440;11.084;2023-12-28T09:00:14;6.70;99.90
14687;DHT22;7431;49.440;11.084;2023-12-28T09:02:42;7.10;99.90
14687;DHT22;7431;49.440;11.084;2023-12-28T09:05:09;6.70;99.90
14687;DHT22;7431;49.440;11.084;2023-12-28T09:07:35;6.70;99.90
14687;DHT22;7431;49.440;11.084;2023-12-28T09:10:04;7.00;99.90
14687;DHT22;7431;49.440;11.084;2023-12-28T09:12:30;7.10;99.90
14687;DHT22;7431;49.440;11.084;2023-12-28T09:14:55;7.20;99.90
14687;DHT22;7431;49.440;11.084;2023-12-28T09:17:21;7.10;99.90
14687;DHT22;7431;49.440;11.084;2023-12-28T09:19:47;7.10;99.90
14687;DHT22;7431;49.440;11.084;2023-12-28T09:22:13;7.20;99.90
14687;DHT22;7431;49.440;11.084;2023-12-28T09:24:38;7.10;99.90
14687;DHT22;7431;49.440;11.084;2023-12-28T09:27:04;8.10;99.90
14687;DHT22;7431;49.440;11.084;2023-12-28T09:29:29;7.60;99.90
14687;DHT22;7431;49.440;11.084;2023-12-28T09:31:55;7.70;99.90
14687;DHT22;7431;49.440;11.084;2023-12-28T09:34:20;7.60;99.90
14687;DHT22;7431;49.440;11.084;2023-12-28T09:36:46;7.30;99.90
14687;DHT22;7431;49.440;11.084;2023-12-28T09:39:12;7.70;99.90
14687;DHT22;7431;49.440;11.084;2023-12-28T09:41:39;8.10;99.90
14687;DHT22;7431;49.440;11.084;2023-12-28T09:44:11;7.70;99.90
14687;DHT22;7431;49.440;11.084;2023-12-28T09:46:41;7.50;99.90
14687;DHT22;7431;49.440;11.084;2023-12-28T09:49:07;8.20;99.90
14687;DHT22;7431;49.440;11.084;2023-12-28T09:51:33;7.50;99.90
14687;DHT22;7431;49.440;11.084;2023-12-28T09:53:59;8.10;99.90
14687;DHT22;7431;49.440;11.084;2023-12-28T09:56:25;7.90;99.90
14687;DHT22;7431;49.440;11.084;2023-12-28T09:58:51;7.50;99.90
14687;DHT22;7431;49.440;11.084;2023-12-28T10:01:20;7.30;99.90
14687;DHT22;7431;49.440;11.084;2023-12-28T10:03:46;7.70;99.90
14687;DHT22;7431;49.440;11.084;2023-12-28T10:06:11;7.70;99.90
14687;DHT22;7431;49.440;11.084;2023-12-28T10:08:44;8.60;99.90
14687;DHT22;7431;49.440;11.084;2023-12-28T10:11:09;7.70;99.90
14687;DHT22;7431;49.440;11.084;2023-12-28T10:13:35;7.60;99.90
14687;DHT22;7431;49.440;11.084;2023-12-28T10:16:01;8.60;99.90
14687;DHT22;7431;49.440;11.084;2023-12-28T10:18:31;7.80;99.90
14687;DHT22;7431;49.440;11.084;2023-12-28T10:20:57;8.60;99.90
14687;DHT22;7431;49.440;11.084;2023-12-28T10:23:23;7.80;99.90
14687;DHT22;7431;49.440;11.084;2023-12-28T10:25:50;8.30;99.90
14687;DHT22;7431;49.440;11.084;2023-12-28T10:28:18;9.60;99.90
14687;DHT22;7431;49.440;11.084;2023-12-28T10:30:45;8.10;99.90
14687;DHT22;7431;49.440;11.084;2023-12-28T10:33:11;7.80;99.90
14687;DHT22;7431;49.440;11.084;2023-12-28T10:35:38;7.70;99.90
14687;DHT22;7431;49.440;11.084;2023-12-28T10:38:04;7.90;99.90
14687;DHT22;7431;49.440;11.084;2023-12-28T10:40:30;7.80;99.90
14687;DHT22;7431;49.440;11.084;2023-12-28T10:43:04;8.70;99.90
14687;DHT22;7431;49.440;11.084;2023-12-28T10:45:33;8.30;99.90
14687;DHT22;7431;49.440;11.084;2023-12-28T10:50:48;8.50;99.90
14687;DHT22;7431;49.440;11.084;2023-12-28T10:56:22;8.50;99.90
14687;DHT22;7431;49.440;11.084;2023-12-28T11:01:47;8.80;99.90
14687;DHT22;7431;49.440;11.084;2023-12-28T11:04:48;9.10;99.90
14687;DHT22;7431;49.440;11.084;2023-12-28T11:07:17;9.10;99.90
14687;DHT22;7431;49.440;11.084;2023-12-28T11:09:43;9.30;99.90
14687;DHT22;7431;49.440;11.084;2023-12-28T11:12:10;9.10;99.90
14687;DHT22;7431;49.440;11.084;2023-12-28T11:14:37;9.40;99.90
14687;DHT22;7431;49.440;11.084;2023-12-28T11:17:03;9.40;99.90
14687;DHT22;7431;49.440;11.084;2023-12-28T11:19:30;9.60;99.90
14687;DHT22;7431;49.440;11.084;2023-12-28T11:21:57;11.00;99.90
14687;DHT22;7431;49.440;11.084;2023-12-28T11:24:27;9.60;99.90
14687;DHT22;7431;49.440;11.084;2023-12-28T11:26:54;10.20;99.90
14687;DHT22;7431;49.440;11.084;2023-12-28T11:29:20;9.60;99.90
14687;DHT22;7431;49.440;11.084;2023-12-28T11:31:57;9.50;99.90
14687;DHT22;7431;49.440;11.084;2023-12-28T11:34:32;10.80;99.90
14687;DHT22;7431;49.440;11.084;2023-12-28T11:37:04;10.10;99.90
14687;DHT22;7431;49.440;11.084;2023-12-28T11:39:32;10.30;99.90
14687;DHT22;7431;49.440;11.084;2023-12-28T11:42:06;10.70;99.90
14687;DHT22;7431;49.440;11.084;2023-12-28T11:44:37;10.20;99.90
14687;DHT22;7431;49.440;11.084;2023-12-28T11:47:21;10.50;99.90
14687;DHT22;7431;49.440;11.084;2023-12-28T11:49:47;10.50;99.90
14687;DHT22;7431;49.440;11.084;2023-12-28T11:52:25;10.40;99.90
14687;DHT22;7431;49.440;11.084;2023-12-28T11:54:51;9.90;99.90
14687;DHT22;7431;49.440;11.084;2023-12-28T11:57:17;11.20;99.90
14687;DHT22;7431;49.440;11.084;2023-12-28T11:59:42;10.20;99.90
14687;DHT22;7431;49.440;11.084;2023-12-28T12:02:09;10.20;99.90
14687;DHT22;7431;49.440;11.084;2023-12-28T12:04:36;10.30;99.90
14687;DHT22;7431;49.440;11.084;2023-12-28T12:07:03;9.40;99.90
14687;DHT22;7431;49.440;11.084;2023-12-28T12:09:29;9.70;99.90
14687;DHT22;7431;49.440;11.084;2023-12-28T12:11:57;9.40;99.90
14687;DHT22;7431;49.440;11.084;2023-12-28T12:14:23;10.00;99.90
14687;DHT22;7431;49.440;11.084;2023-12-28T12:16:49;9.30;99.90
14687;DHT22;7431;49.440;11.084;2023-12-28T12:19:15;9.20;1.00
14687;DHT22;7431;49.440;11.084;2023-12-28T12:21:40;9.80;1.00
14687;DHT22;7431;49.440;11.084;2023-12-28T12:24:06;9.60;1.00
14687;DHT22;7431;49.440;11.084;2023-12-28T12:26:32;9.10;1.00
14687;DHT22;7431;49.440;11.084;2023-12-28T12:28:58;8.80;1.00
14687;DHT22;7431;49.440;11.084;2023-12-28T12:31:24;9.10;1.00
14687;DHT22;7431;49.440;11.084;2023-12-28T12:33:50;9.70;1.00
14687;DHT22;7431;49.440;11.084;2023-12-28T12:36:16;9.30;1.00
14687;DHT22;7431;49.440;11.084;2023-12-28T12:38:42;8.80;1.00
14687;DHT22;7431;49.440;11.084;2023-12-28T12:41:10;9.00;1.00
14687;DHT22;7431;49.440;11.084;2023-12-28T12:43:36;8.90;1.00
14687;DHT22;7431;49.440;11.084;2023-12-28T12:46:02;8.50;1.00
14687;DHT22;7431;49.440;11.084;2023-12-28T12:48:29;9.00;1.00
14687;DHT22;7431;49.440;11.084;2023-12-28T12:50:55;8.90;1.00
14687;DHT22;7431;49.440;11.084;2023-12-28T12:53:21;8.70;1.00
14687;DHT22;7431;49.440;11.084;2023-12-28T12:55:47;9.30;1.00
14687;DHT22;7431;49.440;11.084;2023-12-28T12:58:15;8.80;1.00
14687;DHT22;7431;49.440;11.084;2023-12-28T13:00:42;9.60;1.00
14687;DHT22;7431;49.440;11.084;2023-12-28T13:03:10;9.10;1.00
14687;DHT22;7431;49.440;11.084;2023-12-28T13:05:36;9.30;1.00
14687;DHT22;7431;49.440;11.084;2023-12-28T13:08:03;10.30;1.00
14687;DHT22;7431;49.440;11.084;2023-12-28T13:10:30;9.60;1.00
14687;DHT22;7431;49.440;11.084;2023-12-28T13:12:55;9.50;1.00
14687;DHT22;7431;49.440;11.084;2023-12-28T13:15:21;10.60;1.00
14687;DHT22;7431;49.440;11.084;2023-12-28T13:17:46;9.50;1.00
14687;DHT22;7431;49.440;11.084;2023-12-28T13:20:12;10.50;1.00
14687;DHT22;7431;49.440;11.084;2023-12-28T13:22:38;9.70;1.00
14687;DHT22;7431;49.440;11.084;2023-12-28T13:25:04;9.30;1.00
14687;DHT22;7431;49.440;11.084;2023-12-28T13:27:29;9.60;1.00
14687;DHT22;7431;49.440;11.084;2023-12-28T13:29:56;9.40;1.00
14687;DHT22;7431;49.440;11.084;2023-12-28T13:32:22;9.70;1.00
14687;DHT22;7431;49.440;11.084;2023-12-28T13:34:48;10.30;1.00
14687;DHT22;7431;49.440;11.084;2023-12-28T13:37:16;9.30;1.00
14687;DHT22;7431;49.440;11.084;2023-12-28T13:39:42;10.90;1.00
14687;DHT22;7431;49.440;11.084;2023-12-28T13:42:07;9.50;1.00
14687;DHT22;7431;49.440;11.084;2023-12-28T13:44:34;10.00;1.00
14687;DHT22;7431;49.440;11.084;2023-12-28T13:47:01;9.60;1.00
14687;DHT22;7431;49.440;11.084;2023-12-28T13:49:26;9.60;1.00
14687;DHT22;7431;49.440;11.084;2023-12-28T13:51:52;9.30;1.00
14687;DHT22;7431;49.440;11.084;2023-12-28T13:54:18;10.40;99.90
14687;DHT22;7431;49.440;11.084;2023-12-28T13:56:47;9.70;99.90
14687;DHT22;7431;49.440;11.084;2023-12-28T13:59:13;9.20;1.00
14687;DHT22;7431;49.440;11.084;2023-12-28T14:01:39;10.40;1.00
14687;DHT22;7431;49.440;11.084;2023-12-28T14:04:05;9.10;1.00
14687;DHT22;7431;49.440;11.084;2023-12-28T14:06:31;9.10;1.00
14687;DHT22;7431;49.440;11.084;2023-12-28T14:08:57;9.00;1.00
14687;DHT22;7431;49.440;11.084;2023-12-28T14:11:23;9.10;1.00
14687;DHT22;7431;49.440;11.084;2023-12-28T14:13:49;10.10;1.00
14687;DHT22;7431;49.440;11.084;2023-12-28T14:16:15;9.20;1.00
14687;DHT22;7431;49.440;11.084;2023-12-28T14:18:40;10.20;1.00
14687;DHT22;7431;49.440;11.084;2023-12-28T14:21:08;10.70;27.30
14687;DHT22;7431;49.440;11.084;2023-12-28T14:23:35;9.00;99.90
14687;DHT22;7431;49.440;11.084;2023-12-28T14:26:02;9.10;99.90
14687;DHT22;7431;49.440;11.084;2023-12-28T14:28:30;9.10;99.90
14687;DHT22;7431;49.440;11.084;2023-12-28T14:30:58;9.10;1.00
14687;DHT22;7431;49.440;11.084;2023-12-28T14:33:24;9.00;1.00
14687;DHT22;7431;49.440;11.084;2023-12-28T14:35:50;9.00;1.00
14687;DHT22;7431;49.440;11.084;2023-12-28T14:38:15;9.00;99.90
14687;DHT22;7431;49.440;11.084;2023-12-28T14:40:41;9.70;1.00
14687;DHT22;7431;49.440;11.084;2023-12-28T14:43:06;8.90;1.00
14687;DHT22;7431;49.440;11.084;2023-12-28T14:45:32;8.70;1.00
14687;DHT22;7431;49.440;11.084;2023-12-28T14:47:57;8.60;1.00
14687;DHT22;7431;49.440;11.084;2023-12-28T14:50:23;8.50;99.90
14687;DHT22;7431;49.440;11.084;2023-12-28T14:52:49;8.60;1.00
14687;DHT22;7431;49.440;11.084;2023-12-28T14:55:14;8.70;1.00
14687;DHT22;7431;49.440;11.084;2023-12-28T14:57:40;8.80;1.00
14687;DHT22;7431;49.440;11.084;2023-12-28T15:00:06;8.60;90.60
14687;DHT22;7431;49.440;11.084;2023-12-28T15:02:32;8.70;1.00
14687;DHT22;7431;49.440;11.084;2023-12-28T15:04:57;8.40;99.90
14687;DHT22;7431;49.440;11.084;2023-12-28T15:07:25;8.60;99.90
14687;DHT22;7431;49.440;11.084;2023-12-28T15:09:54;8.40;99.90
14687;DHT22;7431;49.440;11.084;2023-12-28T15:12:22;8.60;99.90
14687;DHT22;7431;49.440;11.084;2023-12-28T15:14:48;8.60;99.90
14687;DHT22;7431;49.440;11.084;2023-12-28T15:17:14;8.50;99.90
14687;DHT22;7431;49.440;11.084;2023-12-28T15:19:40;8.60;99.90
14687;DHT22;7431;49.440;11.084;2023-12-28T15:22:06;8.70;99.90
14687;DHT22;7431;49.440;11.084;2023-12-28T15:24:32;8.70;99.90
14687;DHT22;7431;49.440;11.084;2023-12-28T15:26:58;8.60;99.90
14687;DHT22;7431;49.440;11.084;2023-12-28T15:29:23;9.80;99.90
14687;DHT22;7431;49.440;11.084;2023-12-28T15:31:49;8.10;99.90
14687;DHT22;7431;49.440;11.084;2023-12-28T15:34:15;8.50;99.90
14687;DHT22;7431;49.440;11.084;2023-12-28T15:36:41;9.00;99.90
14687;DHT22;7431;49.440;11.084;2023-12-28T15:39:07;9.70;99.90
14687;DHT22;7431;49.440;11.084;2023-12-28T15:41:32;9.80;99.90
14687;DHT22;7431;49.440;11.084;2023-12-28T15:43:58;8.50;99.90
14687;DHT22;7431;49.440;11.084;2023-12-28T15:46:23;8.20;99.90
14687;DHT22;7431;49.440;11.084;2023-12-28T15:48:49;8.10;99.90
14687;DHT22;7431;49.440;11.084;2023-12-28T15:51:15;9.10;99.90
14687;DHT22;7431;49.440;11.084;2023-12-28T15:53:40;8.50;99.90